San Agustin de Guadalix, Spain
Current Conditions -  °F | °C
As of 7:00 PM on Wednesday 26 Nov 2014 (Local Time) from LECV Reporting Station
Few Clouds Few Clouds  
Wind Chill: 45°   Ceiling: Unl
Heat Index: 45°   Visibility: 6mi
Dew Point: 39°   Wind: 3mph
Humidity: 81%   Direction: 210°SSW
Pressure: 29.85"   Gusts: NA
Location:  40.68°N, 3.62°W
Report Text: LECV 261800Z 21003KT 9999 FEW035 07/04 Q1011
Loading
Personal Weather Stations






























Interactive Weather Map New forecast layout! Learn more

10-Day Weather Forecast

Advertisements
Track Severe Weather on mobile